EVA711 ZSPD-RCTP
Flight info
| Callsign | EVA711 |
|---|---|
| Flight time | 1h 22m |
| Altitude | 33100 |
| Route | MIG92D MIGOL B591 KASKA/N0510F320 L2 BERBA/N0476F240 B591 BAKER BAKER1A |
| Aircraft | B77W/H-SDE1E2E3FGHIJ2J3J4J5M1RWXY/LB1D1 |
Departure
| Time | 2026-04-30 06:37 |
|---|---|
| Airport | Shanghai Pudong International Airport (ZSPD) |
Arrival
| Time | 2026-04-30 07:59 |
|---|---|
| Airport | Taiwan Taoyuan International Airport (RCTP) |
| Time | Latitude | Longitude | Altitude | Speed | Heading |
|---|---|---|---|---|---|
| 2026-04-30 05:57 | 31.15199 | 121.80991 | 28 ft | 0 kts | 72° |
| 2026-04-30 06:23 | 31.15198 | 121.80988 | 28 ft | 1 kts | 72° |
| 2026-04-30 06:23 | 31.15193 | 121.80971 | 28 ft | 2 kts | 72° |
| 2026-04-30 06:24 | 31.15189 | 121.80956 | 28 ft | 2 kts | 74° |
| 2026-04-30 06:24 | 31.15187 | 121.80938 | 28 ft | 2 kts | 98° |
| 2026-04-30 06:24 | 31.15191 | 121.80921 | 28 ft | 2 kts | 120° |
| 2026-04-30 06:24 | 31.15200 | 121.80907 | 28 ft | 2 kts | 139° |
| 2026-04-30 06:25 | 31.15212 | 121.80898 | 28 ft | 2 kts | 160° |
| 2026-04-30 06:25 | 31.15227 | 121.80893 | 28 ft | 2 kts | 166° |
| 2026-04-30 06:25 | 31.15237 | 121.80890 | 28 ft | 0 kts | 164° |
| 2026-04-30 06:25 | 31.15238 | 121.80890 | 28 ft | 0 kts | 163° |
| 2026-04-30 06:28 | 31.15234 | 121.80891 | 28 ft | 1 kts | 163° |
| 2026-04-30 06:28 | 31.15211 | 121.80899 | 28 ft | 5 kts | 163° |
| 2026-04-30 06:28 | 31.15165 | 121.80915 | 28 ft | 8 kts | 162° |
| 2026-04-30 06:29 | 31.15101 | 121.80942 | 28 ft | 11 kts | 162° |
| 2026-04-30 06:29 | 31.15019 | 121.80973 | 28 ft | 13 kts | 162° |
| 2026-04-30 06:29 | 31.14924 | 121.81008 | 28 ft | 15 kts | 162° |
| 2026-04-30 06:29 | 31.14821 | 121.81052 | 28 ft | 16 kts | 144° |
| 2026-04-30 06:30 | 31.14816 | 121.81169 | 28 ft | 16 kts | 74° |
| 2026-04-30 06:30 | 31.14782 | 121.81271 | 28 ft | 15 kts | 162° |
| 2026-04-30 06:30 | 31.14677 | 121.81308 | 28 ft | 16 kts | 161° |
| 2026-04-30 06:30 | 31.14561 | 121.81354 | 28 ft | 18 kts | 162° |
| 2026-04-30 06:31 | 31.14436 | 121.81400 | 28 ft | 19 kts | 163° |
| 2026-04-30 06:31 | 31.14303 | 121.81446 | 28 ft | 20 kts | 164° |
| 2026-04-30 06:31 | 31.14168 | 121.81502 | 28 ft | 20 kts | 162° |
| 2026-04-30 06:31 | 31.14026 | 121.81554 | 28 ft | 21 kts | 163° |
| 2026-04-30 06:32 | 31.13876 | 121.81610 | 28 ft | 23 kts | 162° |
| 2026-04-30 06:32 | 31.13720 | 121.81668 | 28 ft | 23 kts | 163° |
| 2026-04-30 06:32 | 31.13574 | 121.81724 | 28 ft | 20 kts | 161° |
| 2026-04-30 06:32 | 31.13444 | 121.81773 | 28 ft | 18 kts | 162° |
| 2026-04-30 06:33 | 31.13327 | 121.81815 | 28 ft | 16 kts | 163° |
| 2026-04-30 06:33 | 31.13221 | 121.81857 | 28 ft | 15 kts | 161° |
| 2026-04-30 06:33 | 31.13127 | 121.81894 | 28 ft | 13 kts | 162° |
| 2026-04-30 06:33 | 31.13040 | 121.81926 | 28 ft | 12 kts | 162° |
| 2026-04-30 06:34 | 31.12964 | 121.81955 | 28 ft | 11 kts | 160° |
| 2026-04-30 06:34 | 31.12894 | 121.81982 | 28 ft | 10 kts | 162° |
| 2026-04-30 06:34 | 31.12815 | 121.82011 | 28 ft | 12 kts | 163° |
| 2026-04-30 06:34 | 31.12731 | 121.82040 | 28 ft | 12 kts | 162° |
| 2026-04-30 06:35 | 31.12645 | 121.82076 | 28 ft | 13 kts | 160° |
| 2026-04-30 06:35 | 31.12576 | 121.82137 | 28 ft | 11 kts | 102° |
| 2026-04-30 06:35 | 31.12596 | 121.82231 | 28 ft | 12 kts | 71° |
| 2026-04-30 06:35 | 31.12622 | 121.82326 | 28 ft | 12 kts | 71° |
| 2026-04-30 06:36 | 31.12683 | 121.82378 | 28 ft | 11 kts | 7° |
| 2026-04-30 06:36 | 31.12760 | 121.82362 | 28 ft | 11 kts | 341° |
| 2026-04-30 06:36 | 31.12957 | 121.82288 | 28 ft | 62 kts | 343° |
| 2026-04-30 06:36 | 31.13610 | 121.82041 | 28 ft | 130 kts | 341° |
| 2026-04-30 06:37 | 31.14644 | 121.81638 | 141 ft | 176 kts | 343° |
| 2026-04-30 06:37 | 31.15844 | 121.81183 | 792 ft | 184 kts | 345° |
| 2026-04-30 06:37 | 31.17092 | 121.81110 | 1636 ft | 182 kts | 6° |
| 2026-04-30 06:37 | 31.18393 | 121.81335 | 2086 ft | 199 kts | 7° |
| 2026-04-30 06:38 | 31.19829 | 121.81593 | 2541 ft | 219 kts | 7° |
| 2026-04-30 06:38 | 31.21383 | 121.81872 | 3050 ft | 237 kts | 7° |
| 2026-04-30 06:38 | 31.23059 | 121.82174 | 3747 ft | 247 kts | 6° |
| 2026-04-30 06:38 | 31.24766 | 121.82482 | 4592 ft | 252 kts | 7° |
| 2026-04-30 06:39 | 31.26479 | 121.82792 | 5509 ft | 254 kts | 7° |
| 2026-04-30 06:39 | 31.28218 | 121.83106 | 6333 ft | 258 kts | 7° |
| 2026-04-30 06:39 | 31.30016 | 121.83432 | 7163 ft | 262 kts | 6° |
| 2026-04-30 06:39 | 31.31813 | 121.83757 | 7942 ft | 266 kts | 5° |
| 2026-04-30 06:40 | 31.33656 | 121.84094 | 8714 ft | 271 kts | 7° |
| 2026-04-30 06:40 | 31.35442 | 121.84873 | 9396 ft | 286 kts | 29° |
| 2026-04-30 06:40 | 31.36907 | 121.86523 | 10056 ft | 300 kts | 48° |
| 2026-04-30 06:40 | 31.38102 | 121.88583 | 10486 ft | 320 kts | 57° |
| 2026-04-30 06:41 | 31.39107 | 121.91028 | 10854 ft | 342 kts | 67° |
| 2026-04-30 06:41 | 31.39793 | 121.93771 | 11285 ft | 363 kts | 77° |
| 2026-04-30 06:41 | 31.40082 | 121.96776 | 11656 ft | 383 kts | 89° |
| 2026-04-30 06:41 | 31.39886 | 121.99909 | 12059 ft | 400 kts | 101° |
| 2026-04-30 06:42 | 31.39129 | 122.03133 | 12452 ft | 415 kts | 113° |
| 2026-04-30 06:42 | 31.37798 | 122.06154 | 13016 ft | 424 kts | 127° |
| 2026-04-30 06:42 | 31.35943 | 122.08784 | 13826 ft | 422 kts | 140° |
| 2026-04-30 06:42 | 31.33663 | 122.10915 | 14623 ft | 419 kts | 153° |
| 2026-04-30 06:43 | 31.31107 | 122.12430 | 15410 ft | 414 kts | 166° |
| 2026-04-30 06:43 | 31.28355 | 122.13311 | 16241 ft | 408 kts | 177° |
| 2026-04-30 06:43 | 31.25553 | 122.13585 | 17017 ft | 402 kts | 187° |
| 2026-04-30 06:43 | 31.22779 | 122.13251 | 17783 ft | 396 kts | 199° |
| 2026-04-30 06:44 | 31.20098 | 122.12592 | 18652 ft | 398 kts | 195° |
| 2026-04-30 06:44 | 31.17330 | 122.12387 | 19691 ft | 402 kts | 187° |
| 2026-04-30 06:44 | 31.14541 | 122.12688 | 20389 ft | 415 kts | 179° |
| 2026-04-30 06:44 | 31.11706 | 122.13557 | 21052 ft | 432 kts | 169° |
| 2026-04-30 06:45 | 31.08915 | 122.15030 | 21556 ft | 451 kts | 160° |
| 2026-04-30 06:45 | 31.06254 | 122.17114 | 22140 ft | 469 kts | 149° |
| 2026-04-30 06:45 | 31.03853 | 122.19740 | 22801 ft | 482 kts | 141° |
| 2026-04-30 06:45 | 31.01759 | 122.22864 | 23426 ft | 497 kts | 131° |
| 2026-04-30 06:46 | 31.00040 | 122.26421 | 23998 ft | 511 kts | 122° |
| 2026-04-30 06:46 | 30.98753 | 122.30349 | 24463 ft | 527 kts | 112° |
| 2026-04-30 06:46 | 30.97982 | 122.34564 | 24917 ft | 542 kts | 102° |
| 2026-04-30 06:46 | 30.97778 | 122.38966 | 25509 ft | 551 kts | 92° |
| 2026-04-30 06:47 | 30.98074 | 122.43420 | 26069 ft | 559 kts | 85° |
| 2026-04-30 06:47 | 30.98522 | 122.47912 | 26429 ft | 566 kts | 87° |
| 2026-04-30 06:47 | 30.98891 | 122.52537 | 26918 ft | 571 kts | 89° |
| 2026-04-30 06:47 | 30.99165 | 122.57109 | 27448 ft | 573 kts | 90° |
| 2026-04-30 06:48 | 30.99377 | 122.61756 | 27876 ft | 578 kts | 91° |
| 2026-04-30 06:48 | 30.99534 | 122.66454 | 28324 ft | 583 kts | 92° |
| 2026-04-30 06:48 | 30.99653 | 122.71217 | 28648 ft | 590 kts | 93° |
| 2026-04-30 06:48 | 30.99739 | 122.75944 | 29030 ft | 596 kts | 94° |
| 2026-04-30 06:49 | 30.99804 | 122.80807 | 29407 ft | 600 kts | 94° |
| 2026-04-30 06:49 | 30.99850 | 122.85677 | 29904 ft | 602 kts | 94° |
| 2026-04-30 06:49 | 30.99884 | 122.90550 | 30560 ft | 600 kts | 95° |
| 2026-04-30 06:49 | 30.99823 | 122.95324 | 31264 ft | 591 kts | 100° |
| 2026-04-30 06:50 | 30.99300 | 123.00031 | 31881 ft | 580 kts | 109° |
| 2026-04-30 06:50 | 30.98297 | 123.04506 | 32413 ft | 567 kts | 118° |
| 2026-04-30 06:50 | 30.96962 | 123.08736 | 32979 ft | 561 kts | 120° |
| 2026-04-30 06:50 | 30.95537 | 123.13010 | 33150 ft | 562 kts | 120° |
| 2026-04-30 06:51 | 30.94125 | 123.17205 | 33172 ft | 562 kts | 121° |
| 2026-04-30 06:51 | 30.91287 | 123.25597 | 33160 ft | 558 kts | 121° |
| 2026-04-30 06:52 | 30.88439 | 123.33968 | 33177 ft | 557 kts | 121° |
| 2026-04-30 06:52 | 30.85583 | 123.42334 | 33185 ft | 557 kts | 121° |
| 2026-04-30 06:53 | 30.82695 | 123.50640 | 33170 ft | 549 kts | 125° |
| 2026-04-30 06:53 | 30.78633 | 123.57998 | 33172 ft | 533 kts | 142° |
| 2026-04-30 06:53 | 30.76060 | 123.61028 | 33171 ft | 510 kts | 151° |
| 2026-04-30 06:54 | 30.73309 | 123.63457 | 33172 ft | 495 kts | 160° |
| 2026-04-30 06:54 | 30.70332 | 123.65363 | 33171 ft | 477 kts | 168° |
| 2026-04-30 06:54 | 30.67269 | 123.66703 | 33152 ft | 464 kts | 176° |
| 2026-04-30 06:55 | 30.61042 | 123.67962 | 33150 ft | 451 kts | 186° |
| 2026-04-30 06:55 | 30.54840 | 123.68636 | 33160 ft | 442 kts | 188° |
| 2026-04-30 06:56 | 30.48690 | 123.69023 | 33153 ft | 439 kts | 189° |
| 2026-04-30 06:56 | 30.42633 | 123.69217 | 33149 ft | 436 kts | 190° |
| 2026-04-30 06:57 | 30.36583 | 123.69315 | 33150 ft | 435 kts | 191° |
| 2026-04-30 06:57 | 30.30486 | 123.69363 | 33154 ft | 436 kts | 191° |
| 2026-04-30 06:58 | 30.24404 | 123.69389 | 33147 ft | 436 kts | 191° |
| 2026-04-30 06:58 | 30.18346 | 123.69401 | 33149 ft | 437 kts | 191° |
| 2026-04-30 06:59 | 30.12274 | 123.69410 | 33147 ft | 434 kts | 192° |
| 2026-04-30 06:59 | 30.06244 | 123.69411 | 33148 ft | 436 kts | 192° |
| 2026-04-30 07:00 | 30.00154 | 123.69412 | 33146 ft | 438 kts | 192° |
| 2026-04-30 07:00 | 29.94051 | 123.69414 | 33146 ft | 438 kts | 192° |
| 2026-04-30 07:01 | 29.87942 | 123.69415 | 33151 ft | 438 kts | 192° |
| 2026-04-30 07:01 | 29.81808 | 123.69413 | 33154 ft | 441 kts | 192° |
| 2026-04-30 07:02 | 29.75702 | 123.69415 | 33156 ft | 440 kts | 192° |
| 2026-04-30 07:02 | 29.69578 | 123.69415 | 33160 ft | 440 kts | 191° |
| 2026-04-30 07:03 | 29.63432 | 123.69412 | 33155 ft | 445 kts | 192° |
| 2026-04-30 07:03 | 29.57269 | 123.69416 | 33149 ft | 440 kts | 191° |
| 2026-04-30 07:04 | 29.51089 | 123.69412 | 33154 ft | 447 kts | 191° |
| 2026-04-30 07:04 | 29.44867 | 123.69413 | 33150 ft | 446 kts | 191° |
| 2026-04-30 07:05 | 29.35531 | 123.69415 | 33150 ft | 447 kts | 191° |
| 2026-04-30 07:05 | 29.29318 | 123.69414 | 33145 ft | 449 kts | 191° |
| 2026-04-30 07:06 | 29.23053 | 123.69415 | 33147 ft | 446 kts | 191° |
| 2026-04-30 07:06 | 29.16812 | 123.69413 | 33149 ft | 451 kts | 191° |
| 2026-04-30 07:07 | 29.10550 | 123.69415 | 33146 ft | 449 kts | 191° |
| 2026-04-30 07:07 | 29.04289 | 123.69414 | 33147 ft | 451 kts | 191° |
| 2026-04-30 07:08 | 28.98019 | 123.69415 | 33147 ft | 451 kts | 191° |
| 2026-04-30 07:08 | 28.91747 | 123.69416 | 33144 ft | 449 kts | 191° |
| 2026-04-30 07:09 | 28.85449 | 123.69412 | 33157 ft | 455 kts | 191° |
| 2026-04-30 07:09 | 28.79147 | 123.69416 | 33158 ft | 450 kts | 190° |
| 2026-04-30 07:10 | 28.72823 | 123.69369 | 33149 ft | 450 kts | 194° |
| 2026-04-30 07:10 | 28.66813 | 123.68037 | 33158 ft | 432 kts | 207° |
| 2026-04-30 07:11 | 28.61233 | 123.65649 | 33155 ft | 428 kts | 210° |
| 2026-04-30 07:11 | 28.55654 | 123.63222 | 33155 ft | 429 kts | 209° |
| 2026-04-30 07:12 | 28.50123 | 123.60822 | 33153 ft | 426 kts | 209° |
| 2026-04-30 07:12 | 28.44531 | 123.58396 | 33154 ft | 430 kts | 209° |
| 2026-04-30 07:13 | 28.38940 | 123.55977 | 33150 ft | 430 kts | 209° |
| 2026-04-30 07:13 | 28.33342 | 123.53556 | 33154 ft | 432 kts | 208° |
| 2026-04-30 07:14 | 28.27767 | 123.51151 | 33152 ft | 428 kts | 209° |
| 2026-04-30 07:14 | 28.22140 | 123.48722 | 33150 ft | 433 kts | 208° |
| 2026-04-30 07:15 | 28.16550 | 123.46315 | 33153 ft | 433 kts | 209° |
| 2026-04-30 07:15 | 28.10902 | 123.43885 | 33149 ft | 434 kts | 209° |
| 2026-04-30 07:16 | 28.05242 | 123.41453 | 33150 ft | 433 kts | 208° |
| 2026-04-30 07:16 | 27.99618 | 123.39038 | 33152 ft | 435 kts | 208° |
| 2026-04-30 07:17 | 27.93928 | 123.36597 | 33146 ft | 435 kts | 208° |
| 2026-04-30 07:18 | 27.85430 | 123.32958 | 33179 ft | 437 kts | 208° |
| 2026-04-30 07:18 | 27.79741 | 123.30525 | 33172 ft | 437 kts | 208° |
| 2026-04-30 07:19 | 27.74059 | 123.28097 | 33171 ft | 437 kts | 207° |
| 2026-04-30 07:19 | 27.68364 | 123.25666 | 33173 ft | 437 kts | 208° |
| 2026-04-30 07:20 | 27.62662 | 123.23234 | 33172 ft | 441 kts | 207° |
| 2026-04-30 07:20 | 27.56925 | 123.20792 | 33170 ft | 440 kts | 207° |
| 2026-04-30 07:21 | 27.51176 | 123.18346 | 33168 ft | 440 kts | 207° |
| 2026-04-30 07:21 | 27.45420 | 123.15900 | 33164 ft | 442 kts | 207° |
| 2026-04-30 07:22 | 27.36782 | 123.12238 | 33159 ft | 442 kts | 207° |
| 2026-04-30 07:22 | 27.30944 | 123.09763 | 33542 ft | 452 kts | 207° |
| 2026-04-30 07:23 | 27.28025 | 123.08529 | 34025 ft | 448 kts | 207° |
| 2026-04-30 07:23 | 27.25103 | 123.07295 | 34046 ft | 444 kts | 207° |
| 2026-04-30 07:23 | 27.19374 | 123.04878 | 34044 ft | 440 kts | 207° |
| 2026-04-30 07:24 | 27.13585 | 123.02434 | 34041 ft | 443 kts | 207° |
| 2026-04-30 07:24 | 27.07923 | 122.99829 | 34037 ft | 435 kts | 214° |
| 2026-04-30 07:25 | 27.02897 | 122.96107 | 34037 ft | 433 kts | 220° |
| 2026-04-30 07:25 | 26.97991 | 122.92197 | 34030 ft | 431 kts | 220° |
| 2026-04-30 07:26 | 26.93058 | 122.88271 | 34040 ft | 433 kts | 220° |
| 2026-04-30 07:26 | 26.88133 | 122.84359 | 34046 ft | 433 kts | 220° |
| 2026-04-30 07:27 | 26.83193 | 122.80441 | 34043 ft | 435 kts | 220° |
| 2026-04-30 07:27 | 26.78281 | 122.76550 | 34040 ft | 433 kts | 220° |
| 2026-04-30 07:28 | 26.73346 | 122.72644 | 34040 ft | 436 kts | 220° |
| 2026-04-30 07:28 | 26.68395 | 122.68731 | 34042 ft | 436 kts | 220° |
| 2026-04-30 07:29 | 26.63435 | 122.64812 | 34036 ft | 436 kts | 220° |
| 2026-04-30 07:29 | 26.58456 | 122.60883 | 34040 ft | 439 kts | 220° |
| 2026-04-30 07:30 | 26.50965 | 122.54980 | 33584 ft | 443 kts | 220° |
| 2026-04-30 07:30 | 26.48467 | 122.53014 | 33215 ft | 441 kts | 220° |
| 2026-04-30 07:31 | 26.45969 | 122.51048 | 32855 ft | 440 kts | 220° |
| 2026-04-30 07:31 | 26.43435 | 122.49055 | 32497 ft | 445 kts | 219° |
| 2026-04-30 07:31 | 26.40898 | 122.47060 | 32142 ft | 449 kts | 220° |
| 2026-04-30 07:31 | 26.38297 | 122.45016 | 31783 ft | 450 kts | 219° |
| 2026-04-30 07:32 | 26.35739 | 122.43009 | 31433 ft | 451 kts | 220° |
| 2026-04-30 07:32 | 26.33167 | 122.40992 | 31079 ft | 449 kts | 220° |
| 2026-04-30 07:32 | 26.30635 | 122.39008 | 30726 ft | 445 kts | 220° |
| 2026-04-30 07:32 | 26.28114 | 122.37033 | 30375 ft | 442 kts | 220° |
| 2026-04-30 07:33 | 26.25595 | 122.35060 | 30021 ft | 441 kts | 220° |
| 2026-04-30 07:33 | 26.23085 | 122.33095 | 29694 ft | 441 kts | 220° |
| 2026-04-30 07:33 | 26.20570 | 122.31127 | 29364 ft | 440 kts | 220° |
| 2026-04-30 07:33 | 26.18097 | 122.29193 | 29040 ft | 437 kts | 220° |
| 2026-04-30 07:34 | 26.15621 | 122.27258 | 28717 ft | 434 kts | 219° |
| 2026-04-30 07:34 | 26.13159 | 122.25337 | 28396 ft | 432 kts | 220° |
| 2026-04-30 07:34 | 26.10686 | 122.23436 | 28112 ft | 430 kts | 219° |
| 2026-04-30 07:34 | 26.08214 | 122.21545 | 27838 ft | 429 kts | 219° |
| 2026-04-30 07:35 | 26.05777 | 122.19680 | 27567 ft | 428 kts | 219° |
| 2026-04-30 07:35 | 26.03320 | 122.17801 | 27291 ft | 425 kts | 219° |
| 2026-04-30 07:35 | 26.00901 | 122.15951 | 27018 ft | 424 kts | 219° |
| 2026-04-30 07:35 | 25.98451 | 122.14077 | 26742 ft | 425 kts | 219° |
| 2026-04-30 07:36 | 25.96034 | 122.12231 | 26469 ft | 424 kts | 219° |
| 2026-04-30 07:36 | 25.93609 | 122.10378 | 26194 ft | 421 kts | 219° |
| 2026-04-30 07:36 | 25.91208 | 122.08546 | 25921 ft | 420 kts | 219° |
| 2026-04-30 07:36 | 25.88781 | 122.06693 | 25646 ft | 419 kts | 219° |
| 2026-04-30 07:37 | 25.86391 | 122.04871 | 25376 ft | 418 kts | 219° |
| 2026-04-30 07:37 | 25.83983 | 122.03034 | 25102 ft | 417 kts | 219° |
| 2026-04-30 07:37 | 25.81598 | 122.01216 | 24857 ft | 416 kts | 219° |
| 2026-04-30 07:37 | 25.79233 | 121.99414 | 24636 ft | 415 kts | 219° |
| 2026-04-30 07:38 | 25.76843 | 121.97594 | 24411 ft | 414 kts | 219° |
| 2026-04-30 07:38 | 25.74449 | 121.95773 | 24186 ft | 414 kts | 219° |
| 2026-04-30 07:38 | 25.72108 | 121.93993 | 23964 ft | 412 kts | 219° |
| 2026-04-30 07:38 | 25.69741 | 121.92173 | 23735 ft | 408 kts | 220° |
| 2026-04-30 07:39 | 25.67443 | 121.90398 | 23353 ft | 401 kts | 221° |
| 2026-04-30 07:39 | 25.65334 | 121.88435 | 22893 ft | 393 kts | 229° |
| 2026-04-30 07:39 | 25.63533 | 121.86139 | 22420 ft | 399 kts | 237° |
| 2026-04-30 07:39 | 25.62049 | 121.83558 | 21944 ft | 401 kts | 243° |
| 2026-04-30 07:40 | 25.60677 | 121.80886 | 21453 ft | 398 kts | 243° |
| 2026-04-30 07:40 | 25.59320 | 121.78231 | 20959 ft | 394 kts | 243° |
| 2026-04-30 07:40 | 25.57980 | 121.75615 | 20468 ft | 391 kts | 243° |
| 2026-04-30 07:40 | 25.56643 | 121.73006 | 19982 ft | 387 kts | 243° |
| 2026-04-30 07:41 | 25.55335 | 121.70457 | 19497 ft | 384 kts | 243° |
| 2026-04-30 07:41 | 25.54019 | 121.67896 | 19009 ft | 380 kts | 242° |
| 2026-04-30 07:41 | 25.52720 | 121.65367 | 18527 ft | 377 kts | 242° |
| 2026-04-30 07:41 | 25.51436 | 121.62872 | 18048 ft | 373 kts | 242° |
| 2026-04-30 07:42 | 25.50148 | 121.60368 | 17560 ft | 370 kts | 242° |
| 2026-04-30 07:42 | 25.48862 | 121.57962 | 17092 ft | 368 kts | 238° |
| 2026-04-30 07:42 | 25.47283 | 121.55733 | 16613 ft | 366 kts | 232° |
| 2026-04-30 07:42 | 25.45645 | 121.53627 | 16147 ft | 363 kts | 232° |
| 2026-04-30 07:43 | 25.43992 | 121.51509 | 15665 ft | 360 kts | 232° |
| 2026-04-30 07:43 | 25.42361 | 121.49420 | 15192 ft | 357 kts | 232° |
| 2026-04-30 07:43 | 25.40751 | 121.47359 | 14715 ft | 354 kts | 232° |
| 2026-04-30 07:43 | 25.39156 | 121.45317 | 14249 ft | 351 kts | 232° |
| 2026-04-30 07:44 | 25.37557 | 121.43273 | 13773 ft | 348 kts | 232° |
| 2026-04-30 07:44 | 25.35995 | 121.41279 | 13309 ft | 345 kts | 231° |
| 2026-04-30 07:44 | 25.34418 | 121.39265 | 12856 ft | 342 kts | 231° |
| 2026-04-30 07:44 | 25.32873 | 121.37292 | 12405 ft | 339 kts | 231° |
| 2026-04-30 07:45 | 25.31340 | 121.35335 | 11945 ft | 336 kts | 231° |
| 2026-04-30 07:45 | 25.29819 | 121.33397 | 11507 ft | 334 kts | 230° |
| 2026-04-30 07:45 | 25.28301 | 121.31461 | 11066 ft | 331 kts | 230° |
| 2026-04-30 07:45 | 25.26815 | 121.29568 | 10925 ft | 318 kts | 230° |
| 2026-04-30 07:46 | 25.25391 | 121.27754 | 10817 ft | 306 kts | 230° |
| 2026-04-30 07:46 | 25.24028 | 121.26019 | 10705 ft | 295 kts | 231° |
| 2026-04-30 07:46 | 25.22704 | 121.24333 | 10574 ft | 284 kts | 231° |
| 2026-04-30 07:46 | 25.21433 | 121.22716 | 10448 ft | 274 kts | 231° |
| 2026-04-30 07:47 | 25.20210 | 121.21161 | 10340 ft | 264 kts | 230° |
| 2026-04-30 07:47 | 25.19028 | 121.19657 | 10223 ft | 253 kts | 230° |
| 2026-04-30 07:47 | 25.17894 | 121.18215 | 10104 ft | 243 kts | 231° |
| 2026-04-30 07:47 | 25.16796 | 121.16818 | 9950 ft | 250 kts | 230° |
| 2026-04-30 07:48 | 25.15641 | 121.15350 | 9587 ft | 252 kts | 230° |
| 2026-04-30 07:48 | 25.14502 | 121.13905 | 9246 ft | 251 kts | 230° |
| 2026-04-30 07:48 | 25.13354 | 121.12447 | 8922 ft | 250 kts | 230° |
| 2026-04-30 07:48 | 25.12226 | 121.11015 | 8614 ft | 248 kts | 230° |
| 2026-04-30 07:49 | 25.11103 | 121.09590 | 8304 ft | 246 kts | 230° |
| 2026-04-30 07:49 | 25.09982 | 121.08165 | 7998 ft | 244 kts | 230° |
| 2026-04-30 07:49 | 25.08863 | 121.06744 | 7689 ft | 242 kts | 230° |
| 2026-04-30 07:49 | 25.07770 | 121.05355 | 7388 ft | 241 kts | 230° |
| 2026-04-30 07:50 | 25.06674 | 121.03964 | 7094 ft | 239 kts | 230° |
| 2026-04-30 07:50 | 25.05588 | 121.02585 | 6805 ft | 241 kts | 230° |
| 2026-04-30 07:50 | 25.04477 | 121.01175 | 6503 ft | 243 kts | 230° |
| 2026-04-30 07:50 | 25.03375 | 120.99778 | 6207 ft | 242 kts | 230° |
| 2026-04-30 07:51 | 25.02264 | 120.98367 | 5910 ft | 245 kts | 230° |
| 2026-04-30 07:51 | 25.01134 | 120.96936 | 5593 ft | 248 kts | 230° |
| 2026-04-30 07:51 | 24.99972 | 120.95543 | 5274 ft | 251 kts | 221° |
| 2026-04-30 07:51 | 24.98400 | 120.94679 | 4953 ft | 255 kts | 193° |
| 2026-04-30 07:52 | 24.96606 | 120.94732 | 4618 ft | 260 kts | 163° |
| 2026-04-30 07:52 | 24.95046 | 120.95721 | 4274 ft | 260 kts | 134° |
| 2026-04-30 07:52 | 24.93907 | 120.97192 | 4160 ft | 246 kts | 126° |
| 2026-04-30 07:52 | 24.92909 | 120.98637 | 4116 ft | 231 kts | 124° |
| 2026-04-30 07:53 | 24.92238 | 121.00165 | 3988 ft | 215 kts | 97° |
| 2026-04-30 07:53 | 24.92257 | 121.01746 | 3957 ft | 207 kts | 75° |
| 2026-04-30 07:53 | 24.92806 | 121.03205 | 3966 ft | 206 kts | 55° |
| 2026-04-30 07:53 | 24.93672 | 121.04452 | 3834 ft | 207 kts | 50° |
| 2026-04-30 07:54 | 24.94599 | 121.05636 | 3655 ft | 200 kts | 49° |
| 2026-04-30 07:54 | 24.95496 | 121.06754 | 3533 ft | 188 kts | 49° |
| 2026-04-30 07:54 | 24.96324 | 121.07781 | 3327 ft | 171 kts | 49° |
| 2026-04-30 07:54 | 24.97082 | 121.08729 | 3121 ft | 155 kts | 49° |
| 2026-04-30 07:55 | 24.97766 | 121.09589 | 2952 ft | 148 kts | 49° |
| 2026-04-30 07:55 | 24.98438 | 121.10435 | 2762 ft | 145 kts | 48° |
| 2026-04-30 07:55 | 24.99096 | 121.11265 | 2578 ft | 144 kts | 48° |
| 2026-04-30 07:55 | 24.99764 | 121.12109 | 2385 ft | 144 kts | 47° |
| 2026-04-30 07:56 | 25.00418 | 121.12933 | 2196 ft | 143 kts | 47° |
| 2026-04-30 07:56 | 25.01067 | 121.13751 | 2007 ft | 141 kts | 47° |
| 2026-04-30 07:56 | 25.01712 | 121.14567 | 1809 ft | 141 kts | 47° |
| 2026-04-30 07:56 | 25.02347 | 121.15367 | 1626 ft | 139 kts | 47° |
| 2026-04-30 07:57 | 25.02992 | 121.16181 | 1433 ft | 140 kts | 49° |
| 2026-04-30 07:57 | 25.03637 | 121.16999 | 1247 ft | 145 kts | 48° |
| 2026-04-30 07:57 | 25.04314 | 121.17853 | 1041 ft | 148 kts | 47° |
| 2026-04-30 07:57 | 25.04994 | 121.18713 | 839 ft | 150 kts | 47° |
| 2026-04-30 07:58 | 25.05689 | 121.19589 | 635 ft | 153 kts | 47° |
| 2026-04-30 07:58 | 25.06396 | 121.20471 | 377 ft | 153 kts | 48° |
| 2026-04-30 07:58 | 25.07093 | 121.21371 | 238 ft | 156 kts | 48° |
| 2026-04-30 07:58 | 25.07801 | 121.22264 | 123 ft | 148 kts | 49° |
| 2026-04-30 07:59 | 25.08397 | 121.23004 | 121 ft | 111 kts | 48° |
| 2026-04-30 07:59 | 25.08828 | 121.23547 | 120 ft | 75 kts | 50° |
| 2026-04-30 07:59 | 25.09088 | 121.23882 | 120 ft | 39 kts | 49° |
| 2026-04-30 08:00 | 25.09320 | 121.24219 | 120 ft | 19 kts | 101° |
| 2026-04-30 08:00 | 25.09251 | 121.24294 | 120 ft | 13 kts | 140° |
| 2026-04-30 08:00 | 25.09178 | 121.24312 | 120 ft | 11 kts | 223° |
| 2026-04-30 08:00 | 25.09129 | 121.24250 | 120 ft | 10 kts | 229° |
| 2026-04-30 08:01 | 25.09077 | 121.24182 | 120 ft | 13 kts | 230° |
| 2026-04-30 08:01 | 25.09006 | 121.24088 | 120 ft | 17 kts | 231° |
| 2026-04-30 08:01 | 25.08915 | 121.23977 | 120 ft | 21 kts | 229° |
| 2026-04-30 08:01 | 25.08811 | 121.23843 | 120 ft | 24 kts | 229° |
| 2026-04-30 08:02 | 25.08588 | 121.23560 | 120 ft | 22 kts | 226° |
| 2026-04-30 08:02 | 25.08501 | 121.23464 | 120 ft | 11 kts | 191° |
| 2026-04-30 08:03 | 25.08386 | 121.23467 | 120 ft | 7 kts | 221° |
| 2026-04-30 08:03 | 25.08321 | 121.23386 | 120 ft | 6 kts | 229° |
| 2026-04-30 08:03 | 25.08293 | 121.23350 | 120 ft | 6 kts | 230° |
| 2026-04-30 08:04 | 25.08265 | 121.23314 | 120 ft | 5 kts | 227° |
| 2026-04-30 08:04 | 25.08239 | 121.23282 | 120 ft | 5 kts | 227° |
| 2026-04-30 08:04 | 25.08210 | 121.23268 | 120 ft | 4 kts | 173° |
| 2026-04-30 08:04 | 25.08185 | 121.23281 | 120 ft | 3 kts | 143° |
| 2026-04-30 08:05 | 25.08165 | 121.23300 | 120 ft | 3 kts | 141° |
| 2026-04-30 08:05 | 25.08152 | 121.23311 | 120 ft | 1 kts | 141° |
| 2026-04-30 08:05 | 25.08143 | 121.23319 | 120 ft | 0 kts | 140° |
| 2026-04-30 08:05 | 25.08140 | 121.23322 | 120 ft | 0 kts | 140° |
| 2026-04-30 08:06 | 25.08138 | 121.23325 | 120 ft | 0 kts | 140° |
| 2026-04-30 08:06 | 25.08137 | 121.23325 | 120 ft | 0 kts | 140° |
| 2026-04-30 08:06 | 25.08135 | 121.23327 | 120 ft | 0 kts | 140° |